Time;durP1;ratioP1;P1;durP2;ratioP2;P2;SDS_P1;SDS_P2;PMS_P1;PMS_P2;Temp;Humidity;BMP_temperature;BMP_pressure;BME280_temperature;BME280_humidity;BME280_pressure;Samples;Min_cycle;Max_cycle;Signal;HPM_P1;HPM_P2
2023/10/29 00:11:32;1129820.00;3.77;1963.83;129439.00;0.43;224.36;;;;;16.60;1.00;;;;;;2278446;55;3549;-87
2023/10/29 00:31:30;1481851.00;4.94;2609.02;73882.00;0.25;128.47;;;;;17.10;1.00;;;;;;2297622;55;3727;-90
2023/10/29 00:48:59;858760.00;2.86;1483.80;117357.00;0.39;203.52;;;;;17.40;1.00;;;;;;2273595;61;1271;-89
2023/10/29 01:01:36;359947.00;1.20;620.96;0.00;0.00;0.62;;;;;16.00;1.00;;;;;;2269821;61;1204;-89
2023/10/29 01:04:05;243585.00;0.81;420.92;0.00;0.00;0.62;;;;;16.40;1.00;;;;;;2267852;61;1683;-89
2023/10/29 01:09:06;396202.00;1.32;683.28;0.00;0.00;0.62;;;;;16.60;1.00;;;;;;2273939;61;1356;-89
2023/10/29 01:16:35;397732.00;1.33;685.91;0.00;0.00;0.62;;;;;16.90;1.00;;;;;;1966332;56;3630;-87
2023/10/29 01:21:33;226468.00;0.75;391.47;0.00;0.00;0.62;;;;;17.00;1.00;;;;;;2273365;61;1328;-89
2023/10/29 01:26:31;113824.00;0.38;197.43;0.00;0.00;0.62;;;;;17.60;1.00;;;;;;2273748;61;1979;-88
2023/10/29 01:34:00;241470.00;0.80;417.28;0.00;0.00;0.62;;;;;18.00;1.00;;;;;;2273868;61;1267;-88
2023/10/29 01:41:26;415750.00;1.39;716.88;34080.00;0.11;59.64;;;;;18.00;1.00;;;;;;2278172;55;3640;-87
2023/10/29 01:43:53;121386.00;0.40;210.47;0.00;0.00;0.62;;;;;18.00;1.00;;;;;;2276340;61;1429;-88
2023/10/29 01:46:20;269022.00;0.90;464.66;0.00;0.00;0.62;;;;;17.90;1.00;;;;;;2275936;61;2003;-90
2023/10/29 01:48:47;324725.00;1.08;560.42;32144.00;0.11;56.29;;;;;17.50;1.00;;;;;;2275902;61;1113;-88
2023/10/29 01:53:47;198671.00;0.66;343.64;0.00;0.00;0.62;;;;;17.10;1.00;;;;;;2273961;61;1399;-89
2023/10/29 01:58:45;92868.00;0.31;161.26;0.00;0.00;0.62;;;;;16.80;1.00;;;;;;2319432;40;3654;-89
2023/10/29 02:06:17;271460.00;0.90;468.85;0.00;0.00;0.62;;;;;16.90;1.00;;;;;;2273127;61;1909;-88
2023/10/29 02:08:44;75728.00;0.25;131.66;0.00;0.00;0.62;;;;;16.70;1.00;;;;;;2341175;39;3594;-88
2023/10/29 02:11:11;120743.00;0.40;209.36;0.00;0.00;0.62;;;;;16.70;1.00;;;;;;2275876;61;1584;-88
2023/10/29 02:13:38;139738.00;0.47;242.12;0.00;0.00;0.62;;;;;16.70;1.00;;;;;;2272525;61;2245;-90
2023/10/29 02:18:36;294148.00;0.98;507.86;0.00;0.00;0.62;;;;;16.80;1.00;;;;;;2273516;61;1396;-90
2023/10/29 02:28:32;287676.00;0.96;496.73;0.00;0.00;0.62;;;;;16.60;1.00;;;;;;2273608;61;1250;-89
2023/10/29 02:43:49;212494.00;0.71;367.43;13305.00;0.04;23.67;;;;;16.40;1.00;;;;;;2330910;40;3596;-91
2023/10/29 02:48:45;285902.00;0.95;493.68;0.00;0.00;0.62;;;;;16.30;1.00;;;;;;2278028;39;3511;-89
2023/10/29 02:53:48;602781.00;2.01;1039.02;81895.00;0.27;142.31;;;;;16.40;1.00;;;;;;2323701;40;3741;-89
2023/10/29 03:08:47;554304.00;1.85;955.38;85300.00;0.28;148.19;;;;;16.40;1.00;;;;;;2295014;39;3468;-90
2023/10/29 03:13:43;1012613.00;3.38;1754.82;111649.00;0.37;193.68;;;;;16.50;1.00;;;;;;2273116;61;1318;-88
2023/10/29 03:28:46;1032068.00;3.44;1789.35;60740.00;0.20;105.76;;;;;16.00;1.00;;;;;;2273163;61;1391;-90
2023/10/29 03:33:43;1331214.00;4.44;2329.35;44137.00;0.15;77.05;;;;;16.40;1.00;;;;;;2273810;61;1316;-90
2023/10/29 03:38:43;827035.00;2.76;1428.31;22944.00;0.08;40.37;;;;;16.50;1.00;;;;;;2273509;61;1402;-89
2023/10/29 03:46:12;978112.00;3.26;1693.74;96021.00;0.32;166.70;;;;;16.60;1.00;;;;;;2273139;61;1968;-90
2023/10/29 03:51:08;1144242.00;3.81;1989.73;74737.00;0.25;129.95;;;;;16.10;1.00;;;;;;2272986;61;1420;-88
2023/10/29 03:56:05;809962.00;2.70;1398.50;32683.00;0.11;57.23;;;;;16.10;1.00;;;;;;2300494;55;3640;-89
2023/10/29 04:11:08;879883.00;2.93;1520.81;160936.00;0.54;278.65;;;;;16.20;1.00;;;;;;1565260;40;3417;-89
2023/10/29 04:13:35;119079536.00;396.93;68400072.00;105254.00;0.35;182.64;;;;;16.20;1.00;;;;;;2277215;61;1346;-89
2023/10/29 04:26:03;1260625.00;4.20;2200.22;178500.00;0.60;308.91;;;;;16.20;1.00;;;;;;2282493;39;3506;-90
2023/10/29 04:36:04;1109802.00;3.70;1927.96;51910.00;0.17;90.49;;;;;16.50;1.00;;;;;;2273870;61;1423;-88
2023/10/29 04:41:01;1356532.00;4.52;2375.95;12340.00;0.04;22.00;;;;;16.40;1.00;;;;;;1972349;40;3433;-89
2023/10/29 04:45:57;1681261.00;5.60;2989.07;66438.00;0.22;115.60;;;;;15.80;1.00;;;;;;2278501;55;3659;-90
2023/10/29 04:50:53;1147149.00;3.82;1994.95;71758.00;0.24;124.80;;;;;16.40;1.00;;;;;;2274051;61;1434;-89
2023/10/29 04:53:22;781800.00;2.61;1349.40;21875.00;0.07;38.52;;;;;16.70;1.00;;;;;;2272113;61;1488;-89
2023/10/29 04:55:48;817828.00;2.73;1412.23;83051.00;0.28;144.31;;;;;16.30;1.00;;;;;;2272288;61;1150;-89
2023/10/29 04:58:15;906643.00;3.02;1567.79;60601.00;0.20;105.52;;;;;16.10;1.00;;;;;;2272212;61;1739;-87
2023/10/29 05:00:42;831955.00;2.77;1436.91;27692.00;0.09;48.59;;;;;16.00;1.00;;;;;;2272523;61;1040;-90
2023/10/29 05:03:09;853405.00;2.84;1474.43;61690.00;0.21;107.40;;;;;15.50;1.00;;;;;;2272291;61;1252;-88
2023/10/29 05:05:36;610445.00;2.03;1052.26;9309.00;0.03;16.75;;;;;15.60;1.00;;;;;;2272162;61;2006;-88
2023/10/29 05:13:07;1042044.00;3.47;1807.08;21360.00;0.07;37.63;;;;;15.90;1.00;;;;;;2280081;55;3662;-89
2023/10/29 05:18:03;962511.00;3.21;1666.18;17147.00;0.06;30.33;;;;;16.20;1.00;;;;;;2273778;61;1420;-89
2023/10/29 05:30:33;205841.00;0.69;355.98;0.00;0.00;0.62;;;;;16.00;1.00;;;;;;2274220;61;1428;-90
2023/10/29 05:33:00;58531.00;0.20;101.94;0.00;0.00;0.62;;;;;16.30;1.00;;;;;;2272060;61;1575;-89
2023/10/29 05:35:26;18338.00;0.06;32.39;0.00;0.00;0.62;;;;;16.40;1.00;;;;;;2272294;61;1431;-89
2023/10/29 05:37:53;115950.00;0.39;201.10;0.00;0.00;0.62;;;;;16.50;1.00;;;;;;2272081;61;1651;-88
2023/10/29 05:40:20;234850.00;0.78;405.89;34048.00;0.11;59.59;;;;;16.60;1.00;;;;;;2272091;61;1030;-88
2023/10/29 05:45:17;156596.00;0.52;271.17;31336.00;0.10;54.90;;;;;16.80;1.00;;;;;;2283753;39;3502;-88
2023/10/29 05:57:46;216430.00;0.72;374.20;12825.00;0.04;22.84;;;;;17.00;1.00;;;;;;2273955;61;1261;-88
2023/10/29 06:00:15;185712.00;0.62;321.33;61603.00;0.21;107.25;;;;;17.10;1.00;;;;;;2272162;61;2187;-87
2023/10/29 06:02:41;60169.00;0.20;104.77;0.00;0.00;0.62;;;;;17.10;1.00;;;;;;2272068;61;1606;-88
2023/10/29 06:05:08;27414.00;0.09;48.11;0.00;0.00;0.62;;;;;17.20;1.00;;;;;;2272012;61;1163;-88
2023/10/29 06:07:37;101152.00;0.34;175.56;0.00;0.00;0.62;;;;;17.20;1.00;;;;;;2272154;61;2014;-87
2023/10/29 06:10:04;0.00;0.00;0.62;0.00;0.00;0.62;;;;;17.10;1.00;;;;;;2272266;61;1263;-87
2023/10/29 06:12:31;286577.00;0.96;494.84;33494.00;0.11;58.63;;;;;17.20;1.00;;;;;;2272130;61;1594;-88
2023/10/29 06:14:59;134828.00;0.45;233.65;0.00;0.00;0.62;;;;;17.20;1.00;;;;;;2271962;61;1090;-89
2023/10/29 06:17:26;135718.00;0.45;235.19;37860.00;0.13;66.19;;;;;17.20;1.00;;;;;;2272083;61;1678;-87
2023/10/29 06:19:53;147969.00;0.49;256.31;0.00;0.00;0.62;;;;;17.20;1.00;;;;;;2272124;61;1664;-88
2023/10/29 06:22:19;149894.00;0.50;259.62;49378.00;0.16;86.11;;;;;17.30;1.00;;;;;;2272045;61;1380;-88
2023/10/29 06:24:46;0.00;0.00;0.62;0.00;0.00;0.62;;;;;17.50;1.00;;;;;;2272199;61;1114;-87
2023/10/29 06:27:13;95774.00;0.32;166.28;860.00;0.00;2.11;;;;;17.40;1.00;;;;;;2272050;61;2004;-85
2023/10/29 06:29:40;120773.00;0.40;209.42;0.00;0.00;0.62;;;;;17.20;1.00;;;;;;2272116;61;1091;-87
2023/10/29 06:32:08;155148.00;0.52;268.68;0.00;0.00;0.62;;;;;17.10;1.00;;;;;;2272044;61;1717;-87
2023/10/29 06:34:35;145645.00;0.49;252.30;0.00;0.00;0.62;;;;;16.80;1.00;;;;;;2272105;61;1677;-88
2023/10/29 06:37:02;84555.00;0.28;146.90;0.00;0.00;0.62;;;;;16.90;1.00;;;;;;2272197;61;901;-88
2023/10/29 06:39:29;81919.00;0.27;142.35;0.00;0.00;0.62;;;;;16.90;1.00;;;;;;2272136;61;1012;-86
2023/10/29 06:41:56;148860.00;0.50;257.84;0.00;0.00;0.62;;;;;17.10;1.00;;;;;;2271891;61;1368;-87
2023/10/29 06:44:23;103013.00;0.34;178.77;0.00;0.00;0.62;;;;;17.10;1.00;;;;;;2277850;39;3576;-88
2023/10/29 06:46:51;66665.00;0.22;116.00;0.00;0.00;0.62;;;;;17.10;1.00;;;;;;2280161;61;1913;-88
2023/10/29 06:51:53;135344.00;0.45;234.54;0.00;0.00;0.62;;;;;17.00;1.00;;;;;;2273765;61;1431;-88
2023/10/29 06:54:20;170078.00;0.57;294.40;0.00;0.00;0.62;;;;;16.90;1.00;;;;;;2272066;61;1739;-88
2023/10/29 06:56:47;132527.00;0.44;229.69;0.00;0.00;0.62;;;;;17.00;1.00;;;;;;2272037;61;1068;-86
2023/10/29 06:59:14;53263.00;0.18;92.83;0.00;0.00;0.62;;;;;16.90;1.00;;;;;;2272075;61;1098;-87
2023/10/29 07:01:42;82696.00;0.28;143.69;0.00;0.00;0.62;;;;;16.90;1.00;;;;;;2272095;61;1025;-86
2023/10/29 07:04:09;231582.00;0.77;400.27;0.00;0.00;0.62;;;;;17.00;1.00;;;;;;2272022;61;1326;-86
2023/10/29 07:09:07;93281.00;0.31;161.97;0.00;0.00;0.62;;;;;17.30;1.00;;;;;;2273933;61;1211;-89
2023/10/29 07:11:34;45135.00;0.15;78.77;0.00;0.00;0.62;;;;;17.10;1.00;;;;;;2272040;61;1018;-87
2023/10/29 07:14:01;284939.00;0.95;492.03;0.00;0.00;0.62;;;;;17.20;1.00;;;;;;2271986;61;1737;-88
2023/10/29 07:18:57;296520.00;0.99;511.94;0.00;0.00;0.62;;;;;17.30;1.00;;;;;;2273478;61;1428;-88
2023/10/29 07:21:24;14893.00;0.05;26.43;0.00;0.00;0.62;;;;;17.30;1.00;;;;;;2271994;61;1315;-89
2023/10/29 07:23:51;132923.00;0.44;230.37;0.00;0.00;0.62;;;;;17.20;1.00;;;;;;2271951;61;1588;-89
2023/10/29 07:26:20;86030.00;0.29;149.45;0.00;0.00;0.62;;;;;17.40;1.00;;;;;;2271852;61;2012;-89
2023/10/29 07:28:46;59078.00;0.20;102.88;0.00;0.00;0.62;;;;;17.40;1.00;;;;;;2272668;61;1033;-86
2023/10/29 07:31:14;86499.00;0.29;150.26;0.00;0.00;0.62;;;;;17.70;1.00;;;;;;2272656;61;1415;-88
2023/10/29 07:33:41;75812.00;0.25;131.80;0.00;0.00;0.62;;;;;17.80;1.00;;;;;;2272601;61;1390;-87
2023/10/29 07:36:08;240691.00;0.80;415.94;8946.00;0.03;16.12;;;;;17.90;1.00;;;;;;2272565;61;1051;-88
2023/10/29 07:38:35;0.00;0.00;0.62;0.00;0.00;0.62;;;;;17.90;1.00;;;;;;2272726;61;993;-87
2023/10/29 07:41:02;98291.00;0.33;170.62;0.00;0.00;0.62;;;;;17.90;1.00;;;;;;2272597;61;1535;-88
2023/10/29 07:43:30;5848.00;0.02;10.76;0.00;0.00;0.62;;;;;18.00;1.00;;;;;;2272696;61;1313;-88
2023/10/29 07:46:02;106935.00;0.36;185.54;0.00;0.00;0.62;;;;;18.00;1.00;;;;;;2272652;61;1996;-89
2023/10/29 07:48:29;128668.00;0.43;223.03;0.00;0.00;0.62;;;;;18.20;1.00;;;;;;2272555;61;1044;-90
2023/10/29 07:50:56;122390.00;0.41;212.20;4359.00;0.01;8.17;;;;;18.00;1.00;;;;;;2272605;61;1153;-86
2023/10/29 07:53:23;65202.00;0.22;113.47;0.00;0.00;0.62;;;;;17.90;1.00;;;;;;2272639;61;1295;-89
2023/10/29 07:55:50;36336.00;0.12;63.55;0.00;0.00;0.62;;;;;17.90;1.00;;;;;;2272538;61;1666;-88
2023/10/29 07:58:17;53445.00;0.18;93.14;0.00;0.00;0.62;;;;;18.10;1.00;;;;;;2272547;61;1587;-88
2023/10/29 08:00:45;161613.00;0.54;279.82;0.00;0.00;0.62;;;;;18.00;1.00;;;;;;2272613;61;1725;-86
2023/10/29 08:03:12;217030.00;0.72;375.23;0.00;0.00;0.62;;;;;18.00;1.00;;;;;;2272594;61;1399;-87
2023/10/29 08:08:08;99119.00;0.33;172.05;0.00;0.00;0.62;;;;;18.10;1.00;;;;;;2284053;39;3384;-87
2023/10/29 08:10:36;26807.00;0.09;47.06;0.00;0.00;0.62;;;;;18.10;1.00;;;;;;2280491;61;1537;-87
2023/10/29 08:13:05;33510.00;0.11;58.66;0.00;0.00;0.62;;;;;18.20;1.00;;;;;;2278308;61;1400;-89
2023/10/29 08:15:32;15984.00;0.05;28.31;0.00;0.00;0.62;;;;;18.20;1.00;;;;;;2276456;61;1751;-88
2023/10/29 08:18:00;181077.00;0.60;313.34;0.00;0.00;0.62;;;;;17.90;1.00;;;;;;2276332;61;1585;-87
2023/10/29 08:22:56;257669.00;0.86;445.14;0.00;0.00;0.62;;;;;18.00;1.00;;;;;;2274207;61;1412;-90
2023/10/29 08:25:23;29956.00;0.10;52.51;0.00;0.00;0.62;;;;;18.20;1.00;;;;;;2272347;61;1058;-87
2023/10/29 08:27:50;304530.00;1.02;525.71;74836.00;0.25;130.12;;;;;18.10;1.00;;;;;;2292105;39;3450;-89
2023/10/29 08:30:17;95896.00;0.32;166.49;0.00;0.00;0.62;;;;;18.20;1.00;;;;;;2281226;61;1587;-90
2023/10/29 08:32:44;92875.00;0.31;161.27;0.00;0.00;0.62;;;;;18.20;1.00;;;;;;2278925;61;1268;-90
2023/10/29 08:35:12;222450.00;0.74;384.56;0.00;0.00;0.62;;;;;17.90;1.00;;;;;;2276541;61;1055;-87
2023/10/29 08:37:39;528020.00;1.76;910.08;0.00;0.00;0.62;;;;;18.10;1.00;;;;;;2276336;61;1132;-87
2023/10/29 08:40:08;277797.00;0.93;479.75;0.00;0.00;0.62;;;;;18.10;1.00;;;;;;2276482;61;1674;-89
2023/10/29 08:42:35;138128.00;0.46;239.34;0.00;0.00;0.62;;;;;18.00;1.00;;;;;;2276377;61;1571;-87
2023/10/29 08:45:02;102962.00;0.34;178.68;0.00;0.00;0.62;;;;;18.10;1.00;;;;;;2276429;61;1779;-89
2023/10/29 08:47:30;160820.00;0.54;278.45;0.00;0.00;0.62;;;;;18.30;1.00;;;;;;2276148;61;2027;-88
2023/10/29 08:49:57;94095.00;0.31;163.38;0.00;0.00;0.62;;;;;18.50;1.00;;;;;;2276594;61;1118;-86
2023/10/29 08:52:25;0.00;0.00;0.62;0.00;0.00;0.62;;;;;18.70;1.00;;;;;;2276506;61;1386;-89
2023/10/29 08:54:53;44181.00;0.15;77.12;0.00;0.00;0.62;;;;;18.70;1.00;;;;;;2276418;61;1634;-88
2023/10/29 08:57:21;21484.00;0.07;37.84;0.00;0.00;0.62;;;;;18.80;1.00;;;;;;2276411;61;1746;-90
2023/10/29 08:59:48;243379.00;0.81;420.56;90886.00;0.30;157.84;;;;;18.30;1.00;;;;;;2276397;61;1749;-87
2023/10/29 09:02:15;30974.00;0.10;54.27;0.00;0.00;0.62;;;;;18.30;1.00;;;;;;2276533;61;1377;-87
2023/10/29 09:04:42;176664.00;0.59;305.74;0.00;0.00;0.62;;;;;18.40;1.00;;;;;;2276270;61;1787;-88
2023/10/29 09:07:09;223805.00;0.75;386.89;31814.00;0.11;55.72;;;;;18.80;1.00;;;;;;2276353;61;2002;-87
2023/10/29 09:12:07;307666.00;1.03;531.10;0.00;0.00;0.62;;;;;18.90;1.00;;;;;;2273958;61;1435;-88
2023/10/29 09:14:33;120930.00;0.40;209.69;22468.00;0.07;39.54;;;;;19.00;1.00;;;;;;2272384;61;1546;-87
2023/10/29 09:17:00;64371.00;0.21;112.03;0.00;0.00;0.62;;;;;19.20;1.00;;;;;;2272377;61;1021;-88
2023/10/29 09:19:27;162396.00;0.54;281.17;19350.00;0.06;34.14;;;;;19.20;1.00;;;;;;2272222;61;918;-86
2023/10/29 09:21:54;164715.00;0.55;285.16;23884.00;0.08;42.00;;;;;19.50;1.00;;;;;;2272223;61;1365;-87
2023/10/29 09:24:21;47037.00;0.16;82.06;0.00;0.00;0.62;;;;;19.70;1.00;;;;;;2272369;61;946;-88
2023/10/29 09:26:48;114904.00;0.38;199.29;0.00;0.00;0.62;;;;;19.60;1.00;;;;;;2272230;61;1987;-89
2023/10/29 09:29:17;92423.00;0.31;160.49;0.00;0.00;0.62;;;;;19.90;1.00;;;;;;2272335;61;1023;-89
2023/10/29 09:31:44;65335.00;0.22;113.70;0.00;0.00;0.62;;;;;19.90;1.00;;;;;;2272243;61;1540;-89
2023/10/29 09:34:11;127800.00;0.43;221.54;0.00;0.00;0.62;;;;;20.20;1.00;;;;;;2272237;61;1257;-88
2023/10/29 09:36:38;200178.00;0.67;346.23;68660.00;0.23;119.44;;;;;20.20;1.00;;;;;;2272252;61;1781;-88
2023/10/29 09:39:05;80220.00;0.27;139.42;0.00;0.00;0.62;;;;;20.30;1.00;;;;;;2272337;61;1089;-89
2023/10/29 09:41:33;255153.00;0.85;440.81;35363.00;0.12;61.86;;;;;20.50;1.00;;;;;;2272234;61;1584;-88
2023/10/29 09:44:02;41413.00;0.14;72.33;0.00;0.00;0.62;;;;;20.40;1.00;;;;;;2272209;61;2405;-88
2023/10/29 09:46:31;46810.00;0.16;81.67;0.00;0.00;0.62;;;;;20.60;1.00;;;;;;2272151;61;1917;-89
2023/10/29 09:49:00;52732.00;0.18;91.91;0.00;0.00;0.62;;;;;20.80;1.00;;;;;;2272110;61;1464;-89
2023/10/29 09:51:28;107229.00;0.36;186.05;0.00;0.00;0.62;;;;;20.70;1.00;;;;;;2272209;61;1172;-89
2023/10/29 09:53:57;16554.00;0.06;29.30;0.00;0.00;0.62;;;;;20.80;1.00;;;;;;2272156;61;1280;-87
2023/10/29 09:56:25;42946.00;0.14;74.99;0.00;0.00;0.62;;;;;20.80;1.00;;;;;;2272199;61;1144;-89
2023/10/29 10:01:21;245609.00;0.82;424.40;0.00;0.00;0.62;;;;;20.80;1.00;;;;;;2274498;61;1242;-89
2023/10/29 10:03:50;125281.00;0.42;217.19;0.00;0.00;0.62;;;;;20.70;1.00;;;;;;2272040;61;1351;-88
2023/10/29 10:06:17;81520.00;0.27;141.66;0.00;0.00;0.62;;;;;20.60;1.00;;;;;;2272167;61;1544;-87
2023/10/29 10:08:44;153263.00;0.51;265.43;0.00;0.00;0.62;;;;;20.10;1.00;;;;;;2272132;61;1935;-88
2023/10/29 10:11:22;0.00;0.00;0.62;0.00;0.00;0.62;;;;;20.00;1.00;;;;;;2272063;61;1612;-89
2023/10/29 10:13:50;84531.00;0.28;146.86;0.00;0.00;0.62;;;;;19.90;1.00;;;;;;2272101;61;1749;-89
2023/10/29 10:16:20;156368.00;0.52;270.78;41066.00;0.14;71.73;;;;;19.90;1.00;;;;;;2272163;61;1349;-89
2023/10/29 10:18:57;9034.00;0.03;16.28;0.00;0.00;0.62;;;;;20.30;1.00;;;;;;2272226;61;1160;-89
2023/10/29 10:21:26;82515.00;0.28;143.38;17300.00;0.06;30.59;;;;;20.60;1.00;;;;;;2272227;61;1562;-88
2023/10/29 10:23:55;307440.00;1.02;530.71;69894.00;0.23;121.58;;;;;20.80;1.00;;;;;;2272228;61;1413;-87
2023/10/29 10:26:34;32064.00;0.11;56.16;0.00;0.00;0.62;;;;;20.80;1.00;;;;;;2272141;61;1152;-89
2023/10/29 10:29:02;128398.00;0.43;222.57;62782.00;0.21;109.29;;;;;20.90;1.00;;;;;;2272057;61;1786;-89
2023/10/29 10:31:31;105773.00;0.35;183.54;0.00;0.00;0.62;;;;;20.80;1.00;;;;;;2272197;61;1178;-88
2023/10/29 10:34:13;59842.00;0.20;104.20;0.00;0.00;0.62;;;;;20.70;1.00;;;;;;2272003;61;1647;-88
2023/10/29 10:36:41;121553.00;0.41;210.76;21044.00;0.07;37.08;;;;;20.60;1.00;;;;;;2297489;55;3743;-86
2023/10/29 10:39:09;21097.00;0.07;37.17;0.00;0.00;0.62;;;;;20.80;1.00;;;;;;2280197;61;1085;-89
2023/10/29 10:41:43;68607.00;0.23;119.35;0.00;0.00;0.62;;;;;21.10;1.00;;;;;;2280299;61;1132;-87
2023/10/29 10:44:10;125540.00;0.42;217.64;23988.00;0.08;42.18;;;;;21.20;1.00;;;;;;2276336;61;1218;-88
2023/10/29 10:46:39;358218.00;1.19;617.99;0.00;0.00;0.62;;;;;20.80;1.00;;;;;;2275977;61;1707;-88
2023/10/29 10:49:07;155505.00;0.52;269.29;11508.00;0.04;20.56;;;;;21.00;1.00;;;;;;2276062;61;1735;-89
2023/10/29 10:51:38;235600.00;0.79;407.18;0.00;0.00;0.62;;;;;21.20;1.00;;;;;;2276229;61;1002;-88
2023/10/29 10:54:06;438321.00;1.46;755.70;40001.00;0.13;69.89;;;;;21.50;1.00;;;;;;2276189;61;1740;-89
2023/10/29 10:56:36;441329.00;1.47;760.87;57710.00;0.19;100.52;;;;;21.80;1.00;;;;;;2276090;61;1659;-89
2023/10/29 10:59:05;271311.00;0.90;468.60;0.00;0.00;0.62;;;;;22.20;1.00;;;;;;2276191;61;1025;-89
2023/10/29 11:01:32;371633.00;1.24;641.04;35987.00;0.12;62.94;;;;;22.00;1.00;;;;;;2276422;61;1003;-89
2023/10/29 11:04:01;511298.00;1.70;881.28;25930.00;0.09;45.54;;;;;22.30;1.00;;;;;;2276784;61;1432;-90
2023/10/29 11:06:29;833226.00;2.78;1439.13;91519.00;0.31;158.93;;;;;22.80;1.00;;;;;;2276818;61;1642;-89
2023/10/29 11:08:57;911776.00;3.04;1576.81;80813.00;0.27;140.44;;;;;23.00;1.00;;;;;;2276724;61;2003;-91
2023/10/29 11:11:27;886084.00;2.95;1531.69;102627.00;0.34;178.11;;;;;23.10;1.00;;;;;;2276827;61;1541;-89
2023/10/29 11:14:11;874788.00;2.92;1511.88;101004.00;0.34;175.30;;;;;23.10;1.00;;;;;;2276872;61;1663;-87
2023/10/29 11:16:50;38791.00;0.13;67.80;0.00;0.00;0.62;;;;;23.20;1.00;;;;;;2276781;61;1670;-89
2023/10/29 11:19:43;261083.00;0.87;451.01;8630.00;0.03;15.58;;;;;23.20;1.00;;;;;;2276712;61;1546;-89
2023/10/29 11:22:14;33051.00;0.11;57.86;0.00;0.00;0.62;;;;;22.90;1.00;;;;;;2276444;61;1765;-89
2023/10/29 11:24:43;823657.00;2.75;1422.41;69293.00;0.23;120.54;;;;;23.00;1.00;;;;;;2295078;55;3799;-87
2023/10/29 11:32:25;432615.00;1.44;745.88;76035.00;0.25;132.19;;;;;23.50;1.00;;;;;;2274227;61;1419;-88
2023/10/29 11:35:17;409112.00;1.36;705.47;80993.00;0.27;140.75;;;;;23.50;1.00;;;;;;2272671;61;1046;-89
2023/10/29 11:40:33;892292.00;2.97;1542.59;76143.00;0.25;132.37;;;;;23.10;1.00;;;;;;2284925;39;3646;-88
2023/10/29 11:50:32;1298271.00;4.33;2268.94;56013.00;0.19;97.58;;;;;23.00;1.00;;;;;;2274977;61;1204;-89
2023/10/29 11:52:59;380048.00;1.27;655.51;0.00;0.00;0.62;;;;;22.90;1.00;;;;;;2273227;61;1517;-88
2023/10/29 11:55:39;341956.00;1.14;590.04;78800.00;0.26;136.96;;;;;22.90;1.00;;;;;;2272529;61;922;-89
2023/10/29 12:10:47;1288232.00;4.29;2250.58;61687.00;0.21;107.39;;;;;23.50;1.00;;;;;;2283936;55;3637;-89
2023/10/29 12:13:15;854446.00;2.85;1476.25;25046.00;0.08;44.01;;;;;23.60;1.00;;;;;;2292874;39;3626;-91
2023/10/29 12:23:10;1691278.00;5.64;3008.49;197135.00;0.66;340.99;;;;;23.30;1.00;;;;;;1578737;56;3585;-88
2023/10/29 12:58:17;1710123.00;5.70;3045.11;158410.00;0.53;274.30;;;;;22.50;1.00;;;;;;2273089;61;1407;-89
2023/10/29 13:03:11;1416136.00;4.72;2486.28;69830.00;0.23;121.47;;;;;22.90;1.00;;;;;;2274858;61;1313;-91
2023/10/29 13:08:34;1512672.00;5.04;2666.99;237729.00;0.79;410.84;;;;;22.80;1.00;;;;;;2286084;40;3551;-89
2023/10/29 13:21:02;518969.00;1.73;894.49;0.00;0.00;0.62;;;;;23.60;1.00;;;;;;2273720;61;1420;-90
2023/10/29 13:31:01;602123.00;2.01;1037.89;0.00;0.00;0.62;;;;;24.30;1.00;;;;;;2273657;61;1436;-88
2023/10/29 13:53:31;308991.00;1.03;533.38;0.00;0.00;0.62;;;;;23.50;1.00;;;;;;2287154;39;3481;-90
2023/10/29 14:16:06;431675.00;1.44;744.27;0.00;0.00;0.62;;;;;23.50;1.00;;;;;;1221294;55;3584;-89
2023/10/29 14:36:04;379678.00;1.27;654.87;79955.00;0.27;138.96;;;;;22.60;1.00;;;;;;2284008;55;3658;-90
2023/10/29 14:41:01;515555.00;1.72;888.61;69970.00;0.23;121.71;;;;;22.20;1.00;;;;;;2274552;61;1348;-89
2023/10/29 14:56:12;1517628.00;5.06;2676.33;84617.00;0.28;147.01;;;;;22.80;1.00;;;;;;1948166;40;3640;-90
2023/10/29 15:08:36;1111912.00;3.71;1931.74;21435.00;0.07;37.76;;;;;23.00;1.00;;;;;;2273374;61;1981;-90
2023/10/29 15:13:34;1223598.00;4.08;2132.94;43451.00;0.14;75.86;;;;;23.00;1.00;;;;;;2273323;61;1434;-91
2023/10/29 15:26:14;388480.00;1.29;670.00;0.00;0.00;0.62;;;;;22.50;1.00;;;;;;2291397;55;3652;-90
2023/10/29 15:28:42;80499.00;0.27;139.90;0.00;0.00;0.62;;;;;22.30;1.00;;;;;;2292076;39;3561;-90
2023/10/29 15:33:39;331574.00;1.11;572.19;0.00;0.00;0.62;;;;;22.30;1.00;;;;;;2273953;61;1385;-88
2023/10/29 15:38:35;251755.00;0.84;434.97;0.00;0.00;0.62;;;;;22.10;1.00;;;;;;2273884;61;1352;-88
2023/10/29 15:41:02;103568.00;0.35;179.73;0.00;0.00;0.62;;;;;22.30;1.00;;;;;;2271870;61;1530;-90
2023/10/29 15:43:30;1348655.00;4.50;2361.43;114050.00;0.38;197.82;;;;;22.30;1.00;;;;;;2293632;56;3721;-89
2023/10/29 15:45:58;698239.00;2.33;1204.18;0.00;0.00;0.62;;;;;22.30;1.00;;;;;;2284241;55;3754;-89
2023/10/29 15:48:25;705984.00;2.35;1217.62;34555.00;0.12;60.47;;;;;21.80;1.00;;;;;;2276375;61;1923;-89
2023/10/29 15:50:53;686435.00;2.29;1183.72;38193.00;0.13;66.76;;;;;21.60;1.00;;;;;;2276671;61;1011;-89
2023/10/29 15:53:20;805628.00;2.69;1390.94;48560.00;0.16;84.70;;;;;21.60;1.00;;;;;;2273953;61;1277;-88
2023/10/29 15:58:18;2254254.00;7.51;4160.13;109786.00;0.37;190.46;;;;;21.30;1.00;;;;;;2275064;61;1225;-91
2023/10/29 16:00:45;769368.00;2.56;1327.75;23257.00;0.08;40.91;;;;;21.10;1.00;;;;;;2273245;61;1392;-91
2023/10/29 16:03:16;779782.00;2.60;1345.89;47477.00;0.16;82.82;;;;;21.20;1.00;;;;;;2272456;61;1702;-88
2023/10/29 16:05:43;671600.00;2.24;1158.02;46556.00;0.16;81.23;;;;;21.20;1.00;;;;;;2281064;39;3587;-88
2023/10/29 16:10:45;1436912.00;4.79;2524.96;0.00;0.00;0.62;;;;;20.80;1.00;;;;;;2285807;56;3635;-88
2023/10/29 16:13:12;1375292.00;4.58;2410.58;6268.00;0.02;11.48;;;;;21.10;1.00;;;;;;2285328;40;3845;-88
2023/10/29 16:15:39;879066.00;2.93;1519.38;64490.00;0.21;112.24;;;;;21.20;1.00;;;;;;2284612;55;3728;-88
2023/10/29 16:18:07;1322521.00;4.41;2313.38;157475.00;0.52;272.69;;;;;21.10;1.00;;;;;;2292159;40;3627;-89
2023/10/29 16:20:36;705970.00;2.35;1217.59;116009.00;0.39;201.20;;;;;20.80;1.00;;;;;;2276477;61;1620;-88
2023/10/29 16:28:11;965496.00;3.22;1671.45;48281.00;0.16;84.21;;;;;20.90;1.00;;;;;;2274411;61;1903;-87
2023/10/29 16:30:38;767011.00;2.56;1323.65;62262.00;0.21;108.39;;;;;20.80;1.00;;;;;;2272480;61;1062;-88
2023/10/29 16:35:37;1016791.00;3.39;1762.23;105959.00;0.35;183.86;;;;;20.60;1.00;;;;;;2278075;61;1406;-88
2023/10/29 16:38:04;726910.00;2.42;1253.94;85756.00;0.29;148.98;;;;;20.80;1.00;;;;;;2276622;61;1040;-90
2023/10/29 16:40:31;772635.00;2.58;1333.44;117042.00;0.39;202.98;;;;;20.80;1.00;;;;;;2276489;61;1906;-88
2023/10/29 16:43:00;701832.00;2.34;1210.42;4130.00;0.01;7.78;;;;;20.80;1.00;;;;;;2281191;55;3704;-87
2023/10/29 16:45:27;661789.00;2.21;1141.04;11147.00;0.04;19.94;;;;;20.80;1.00;;;;;;2276292;61;1588;-87
2023/10/29 16:47:54;785712.00;2.62;1356.22;127487.00;0.42;221.00;;;;;20.90;1.00;;;;;;2276514;61;2004;-87
2023/10/29 16:50:21;972584.00;3.24;1683.97;55118.00;0.18;96.04;;;;;20.80;1.00;;;;;;2276439;61;998;-88
2023/10/29 16:55:19;937944.00;3.13;1622.86;27909.00;0.09;48.96;;;;;21.10;1.00;;;;;;2307384;55;3656;-90
2023/10/29 17:00:15;1201350.00;4.00;2092.66;0.00;0.00;0.62;;;;;21.10;1.00;;;;;;2273917;61;1436;-90
2023/10/29 17:02:42;584637.00;1.95;1007.70;17434.00;0.06;30.83;;;;;21.10;1.00;;;;;;2272293;61;1400;-89
2023/10/29 17:05:09;818964.00;2.73;1414.22;30653.00;0.10;53.71;;;;;21.10;1.00;;;;;;2272399;61;1085;-90
2023/10/29 17:07:36;752217.00;2.51;1297.91;11902.00;0.04;21.24;;;;;21.10;1.00;;;;;;2272358;61;1130;-89
2023/10/29 17:10:04;610922.00;2.04;1053.08;22909.00;0.08;40.31;;;;;21.30;1.00;;;;;;2272428;61;2002;-87
2023/10/29 17:12:32;720128.00;2.40;1242.16;45448.00;0.15;79.31;;;;;21.30;1.00;;;;;;2272398;61;1276;-86
2023/10/29 17:14:59;520239.00;1.73;896.68;12789.00;0.04;22.78;;;;;21.20;1.00;;;;;;2272306;61;1787;-87
2023/10/29 17:17:28;646702.00;2.16;1114.93;28475.00;0.09;49.94;;;;;21.20;1.00;;;;;;2272378;61;2219;-89
2023/10/29 17:24:57;1088763.00;3.63;1890.34;56087.00;0.19;97.71;;;;;21.30;1.00;;;;;;2273998;61;1436;-89